createdAt,value
2022-12-31T19:32:55.209Z,93.21289063
2022-12-31T19:33:55.918Z,93.01147461
2022-12-31T19:34:56.760Z,92.90771484
2022-12-31T19:35:57.684Z,93.05419922
2022-12-31T19:36:58.510Z,93.359375
2022-12-31T19:38:00.116Z,93.46313477
2022-12-31T19:39:00.984Z,93.56689453
2022-12-31T19:40:01.824Z,93.6706543
2022-12-31T19:41:02.717Z,93.56689453
2022-12-31T19:42:03.622Z,93.46313477
2022-12-31T19:43:04.529Z,93.46313477
2022-12-31T19:44:05.379Z,93.46313477
2022-12-31T19:45:06.265Z,93.46313477
2022-12-31T19:46:07.172Z,93.56689453
2022-12-31T19:47:07.982Z,93.56689453
2022-12-31T19:48:09.688Z,93.46313477
2022-12-31T19:49:10.576Z,93.359375
2022-12-31T19:50:11.307Z,93.359375
2022-12-31T19:51:42.663Z,93.46313477
2022-12-31T19:52:43.486Z,93.359375
2022-12-31T19:53:44.360Z,93.25561523
2022-12-31T19:54:45.206Z,93.25561523
2022-12-31T19:55:46.023Z,93.25561523
2022-12-31T19:56:47.712Z,93.25561523
2022-12-31T19:57:49.182Z,93.15795898
2022-12-31T19:58:50.056Z,92.95043945
2022-12-31T19:59:50.776Z,92.84667969
2022-12-31T20:00:56.760Z,92.84667969
2022-12-31T20:01:52.492Z,92.95043945
2022-12-31T20:02:53.435Z,92.95043945
2022-12-31T20:03:54.121Z,92.95043945
2022-12-31T20:04:54.899Z,92.84667969
2022-12-31T20:05:55.620Z,92.74291992
2022-12-31T20:06:56.437Z,92.74291992
2022-12-31T20:07:58.157Z,92.63916016
2022-12-31T20:08:59.038Z,92.63916016
2022-12-31T20:09:59.810Z,92.63916016
2022-12-31T20:11:00.576Z,92.54150391
2022-12-31T20:12:01.353Z,92.63916016
2022-12-31T20:13:02.276Z,92.63916016
2022-12-31T20:14:03.269Z,92.54150391
2022-12-31T20:15:04.288Z,92.23022461
2022-12-31T20:16:05.077Z,92.12646484
2022-12-31T20:17:06.696Z,92.02880859
2022-12-31T20:18:07.406Z,91.86401367
2022-12-31T20:19:09.235Z,91.76025391
2022-12-31T20:20:10.152Z,91.65649414
2022-12-31T20:21:11.017Z,91.86401367
2022-12-31T20:22:42.189Z,91.76025391
2022-12-31T20:23:43.008Z,91.76025391
2022-12-31T20:24:43.916Z,91.76025391
2022-12-31T20:25:44.740Z,91.76025391
2022-12-31T20:26:45.586Z,91.65649414
2022-12-31T20:27:47.179Z,91.65649414
2022-12-31T20:28:47.925Z,91.65649414
2022-12-31T20:29:49.708Z,91.65649414
2022-12-31T20:30:50.698Z,91.55273438
2022-12-31T20:31:51.458Z,91.55273438
2022-12-31T20:32:52.271Z,91.55273438
2022-12-31T20:33:52.967Z,91.55273438
2022-12-31T20:34:53.827Z,91.65649414
2022-12-31T20:35:54.878Z,91.65649414
2022-12-31T20:36:55.714Z,91.86401367
2022-12-31T20:37:57.457Z,91.96777344
2022-12-31T20:38:58.210Z,91.96777344
2022-12-31T20:39:59.063Z,91.86401367
2022-12-31T20:40:59.901Z,91.86401367
2022-12-31T20:42:01.703Z,91.86401367
2022-12-31T20:43:02.428Z,91.86401367
2022-12-31T20:44:03.158Z,91.76025391
2022-12-31T20:45:04.105Z,91.76025391
2022-12-31T20:46:08.103Z,91.86401367
2022-12-31T20:47:05.901Z,91.96777344
2022-12-31T20:48:07.707Z,92.16918945
2022-12-31T20:49:08.493Z,92.16918945
2022-12-31T20:50:12.313Z,92.27294922
2022-12-31T20:51:10.276Z,92.37670898
2022-12-31T20:52:41.952Z,92.48046875
2022-12-31T20:53:42.772Z,92.48046875
2022-12-31T20:54:43.573Z,92.48046875
2022-12-31T20:55:44.415Z,92.48046875
2022-12-31T20:56:45.263Z,92.27294922
2022-12-31T20:57:47.111Z,91.86401367
2022-12-31T20:58:48.714Z,91.55273438
2022-12-31T20:59:49.484Z,91.24755859
2022-12-31T21:00:50.403Z,91.14379883
2022-12-31T21:02:20.035Z,91.14379883
2022-12-31T21:03:02.210Z,90.9362793
2022-12-31T21:04:04.782Z,90.87524414
2022-12-31T21:04:54.076Z,90.97900391
2022-12-31T21:05:54.875Z,91.08276367
2022-12-31T21:06:55.513Z,90.97900391
2022-12-31T21:07:57.938Z,90.77758789
2022-12-31T21:08:58.809Z,90.77758789
2022-12-31T21:09:59.592Z,90.77758789
2022-12-31T21:11:00.369Z,90.77758789
2022-12-31T21:12:01.211Z,90.87524414
2022-12-31T21:13:02.086Z,90.87524414
2022-12-31T21:14:03.232Z,90.97900391
2022-12-31T21:15:03.775Z,91.08276367
2022-12-31T21:16:04.565Z,91.18652344
2022-12-31T21:17:05.478Z,91.2902832
2022-12-31T21:18:07.193Z,91.39404297
2022-12-31T21:19:08.132Z,91.39404297
2022-12-31T21:20:08.992Z,91.39404297
2022-12-31T21:21:09.838Z,91.18652344
2022-12-31T21:22:41.558Z,91.39404297
2022-12-31T21:23:42.404Z,91.39404297
2022-12-31T21:24:43.231Z,91.2902832
2022-12-31T21:25:44.148Z,91.18652344
2022-12-31T21:26:44.903Z,91.08276367
2022-12-31T21:27:46.159Z,91.2902832
2022-12-31T21:28:47.000Z,91.18652344
2022-12-31T21:30:17.100Z,91.08276367
2022-12-31T21:30:49.511Z,90.97900391
2022-12-31T21:31:50.308Z,90.87524414
2022-12-31T21:32:50.987Z,90.67382813
2022-12-31T21:33:51.768Z,90.67382813
2022-12-31T21:35:23.076Z,90.71655273
2022-12-31T21:35:54.229Z,90.71655273
2022-12-31T21:36:54.273Z,90.71655273
2022-12-31T21:37:58.330Z,90.71655273
2022-12-31T21:38:56.480Z,90.81420898
2022-12-31T21:39:58.223Z,90.81420898
2022-12-31T21:40:59.107Z,90.81420898
2022-12-31T21:42:00.095Z,90.91796875
2022-12-31T21:43:00.692Z,90.91796875
2022-12-31T21:44:01.452Z,90.91796875
2022-12-31T21:45:02.283Z,91.22924805
2022-12-31T21:46:03.196Z,91.33300781
2022-12-31T21:47:34.657Z,91.02172852
2022-12-31T21:48:05.647Z,90.91796875
2022-12-31T21:49:06.390Z,91.02172852
2022-12-31T21:50:07.180Z,90.81420898
2022-12-31T21:51:08.096Z,90.71655273
2022-12-31T21:52:08.946Z,90.71655273
2022-12-31T21:53:09.697Z,90.71655273
2022-12-31T21:54:40.977Z,90.81420898
2022-12-31T21:55:41.854Z,90.81420898
2022-12-31T21:56:42.713Z,90.61279297
2022-12-31T21:58:15.687Z,90.5090332
2022-12-31T21:58:45.043Z,90.30151367
2022-12-31T21:59:46.720Z,90.19775391
2022-12-31T22:00:47.378Z,90.30151367
2022-12-31T22:01:48.286Z,90.40527344
2022-12-31T22:02:59.222Z,90.5090332
2022-12-31T22:03:49.926Z,90.5090332
2022-12-31T22:05:02.602Z,90.19775391
2022-12-31T22:05:51.408Z,89.99633789
2022-12-31T22:06:53.208Z,89.99633789
2022-12-31T22:07:54.705Z,90.09399414
2022-12-31T22:08:56.189Z,90.30151367
2022-12-31T22:09:56.877Z,90.19775391
2022-12-31T22:10:57.756Z,90.19775391
2022-12-31T22:11:58.620Z,90.19775391
2022-12-31T22:12:59.450Z,90.30151367
2022-12-31T22:14:00.167Z,90.30151367
2022-12-31T22:15:15.640Z,90.5090332
2022-12-31T22:16:05.401Z,90.61279297
2022-12-31T22:17:02.383Z,90.71655273
2022-12-31T22:18:03.091Z,90.81420898
2022-12-31T22:19:04.572Z,90.91796875
2022-12-31T22:20:27.598Z,90.91796875
2022-12-31T22:21:06.051Z,90.81420898
2022-12-31T22:22:06.821Z,90.81420898
2022-12-31T22:23:07.544Z,90.81420898
2022-12-31T22:24:08.311Z,90.81420898
2022-12-31T22:25:09.081Z,90.81420898
2022-12-31T22:26:44.838Z,90.71655273
2022-12-31T22:27:42.189Z,90.71655273
2022-12-31T22:28:42.912Z,90.71655273
2022-12-31T22:29:43.650Z,90.71655273
2022-12-31T22:30:44.451Z,90.61279297
2022-12-31T22:31:46.032Z,90.61279297
2022-12-31T22:32:46.818Z,90.40527344
2022-12-31T22:33:47.584Z,90.30151367
2022-12-31T22:34:48.307Z,90.40527344
2022-12-31T22:35:49.063Z,90.40527344
2022-12-31T22:36:49.791Z,90.5090332
2022-12-31T22:37:59.046Z,90.5090332
2022-12-31T22:38:52.011Z,90.30151367
2022-12-31T22:39:53.632Z,90.30151367
2022-12-31T22:40:54.448Z,90.19775391
2022-12-31T22:41:55.157Z,90.19775391
2022-12-31T22:42:55.883Z,90.19775391
2022-12-31T22:44:02.957Z,90.19775391
2022-12-31T22:44:57.635Z,90.19775391
2022-12-31T22:45:58.408Z,90.30151367
2022-12-31T22:46:59.205Z,90.40527344
2022-12-31T22:47:59.928Z,90.61279297
2022-12-31T22:49:01.529Z,90.46630859
2022-12-31T22:50:02.187Z,90.40527344
2022-12-31T22:51:02.947Z,90.1550293
2022-12-31T22:52:08.525Z,90.25878906
2022-12-31T22:53:04.446Z,90.19775391
2022-12-31T22:54:05.216Z,90.19775391
2022-12-31T22:55:05.919Z,90.30151367
2022-12-31T22:56:06.662Z,90.30151367
2022-12-31T22:57:07.342Z,90.40527344
2022-12-31T22:58:08.662Z,90.71655273
2022-12-31T22:59:40.229Z,90.61279297
2022-12-31T23:00:41.525Z,90.5090332
2022-12-31T23:01:42.316Z,90.40527344
2022-12-31T23:02:43.130Z,90.40527344
2022-12-31T23:03:43.860Z,90.5090332
2022-12-31T23:04:44.578Z,90.71655273
2022-12-31T23:05:45.291Z,90.5090332
2022-12-31T23:06:46.110Z,90.5090332
2022-12-31T23:07:46.821Z,90.5090332
2022-12-31T23:08:48.307Z,90.5090332
2022-12-31T23:09:48.935Z,90.40527344
2022-12-31T23:10:49.695Z,90.5090332
2022-12-31T23:11:50.441Z,90.61279297
2022-12-31T23:12:51.177Z,90.40527344
2022-12-31T23:13:51.933Z,90.30151367
2022-12-31T23:14:52.663Z,90.19775391
2022-12-31T23:15:53.760Z,90.19775391
2022-12-31T23:16:54.475Z,90.40527344
2022-12-31T23:17:55.239Z,90.61279297
2022-12-31T23:19:01.808Z,90.71655273
2022-12-31T23:19:57.657Z,90.71655273
2022-12-31T23:20:58.376Z,90.81420898
2022-12-31T23:21:59.158Z,90.71655273
2022-12-31T23:22:59.892Z,90.71655273
2022-12-31T23:24:00.776Z,90.71655273
2022-12-31T23:25:01.461Z,90.71655273
2022-12-31T23:26:02.215Z,90.71655273
2022-12-31T23:27:03.032Z,90.61279297
2022-12-31T23:28:04.648Z,90.40527344
2022-12-31T23:29:06.147Z,90.19775391
2022-12-31T23:30:06.955Z,90.09399414
2022-12-31T23:31:07.790Z,90.09399414
2022-12-31T23:32:08.497Z,90.09399414
2022-12-31T23:33:39.730Z,90.19775391
2022-12-31T23:34:40.522Z,90.19775391
2022-12-31T23:35:41.294Z,90.09399414
2022-12-31T23:36:42.020Z,90.09399414
2022-12-31T23:37:42.740Z,90.09399414
2022-12-31T23:38:44.186Z,89.99633789
2022-12-31T23:39:44.921Z,90.09399414
2022-12-31T23:40:46.507Z,90.30151367
2022-12-31T23:41:47.252Z,90.30151367
2022-12-31T23:42:48.093Z,90.5090332
2022-12-31T23:43:48.692Z,90.71655273
2022-12-31T23:44:49.468Z,91.12548828
2022-12-31T23:45:50.233Z,91.53442383
2022-12-31T23:46:51.026Z,91.59545898
2022-12-31T23:47:51.716Z,91.39404297
2022-12-31T23:48:53.201Z,90.87524414
2022-12-31T23:49:53.969Z,90.77758789
2022-12-31T23:50:54.707Z,90.57006836
2022-12-31T23:51:56.151Z,90.36254883
2022-12-31T23:52:56.939Z,90.36254883
2022-12-31T23:53:57.651Z,90.25878906
2022-12-31T23:54:58.376Z,90.19775391
2022-12-31T23:55:59.105Z,90.09399414
2022-12-31T23:56:59.814Z,90.19775391
2022-12-31T23:58:00.547Z,90.09399414
2022-12-31T23:59:02.143Z,89.99633789
